Time;durP1;ratioP1;P1;durP2;ratioP2;P2;SDS_P1;SDS_P2;PMS_P1;PMS_P2;Temp;Humidity;BMP_temperature;BMP_pressure;BME280_temperature;BME280_humidity;BME280_pressure;Samples;Min_cycle;Max_cycle;Signal;HPM_P1;HPM_P2
2021/10/16 00:01:11;;;;;;;;;15.25;15.25;;;;;13.01;68.42;101358.59;5056001;28;73827;-61
2021/10/16 00:03:37;;;;;;;;;15.25;13.75;;;;;12.99;68.62;101357.88;5057091;28;45796;-60
2021/10/16 00:06:02;;;;;;;;;16.50;13.00;;;;;12.97;68.12;101357.19;5056906;28;45886;-61
2021/10/16 00:08:27;;;;;;;;;15.25;14.25;;;;;12.98;68.17;101353.59;5055790;28;64547;-60
2021/10/16 00:10:53;;;;;;;;;19.25;15.00;;;;;12.96;68.32;101355.50;5056199;28;68886;-61
2021/10/16 00:13:18;;;;;;;;;16.00;13.00;;;;;12.94;68.17;101352.16;5056455;28;64917;-61
2021/10/16 00:15:43;;;;;;;;;13.50;12.00;;;;;12.94;67.99;101360.09;5056943;28;50203;-60
2021/10/16 00:18:10;;;;;;;;;17.25;15.00;;;;;12.93;68.32;101351.34;5056358;28;64294;-60
2021/10/16 00:20:35;;;;;;;;;15.75;12.00;;;;;12.92;67.84;101354.97;5056912;28;46214;-61
2021/10/16 00:23:01;;;;;;;;;11.75;11.00;;;;;12.90;67.97;101351.63;5056707;28;45410;-61
2021/10/16 00:25:26;;;;;;;;;11.00;11.00;;;;;12.88;68.04;101362.28;5056203;28;63036;-61
2021/10/16 00:27:51;;;;;;;;;12.75;10.00;;;;;12.86;68.17;101355.47;5056307;28;60464;-60
2021/10/16 00:30:17;;;;;;;;;14.00;12.50;;;;;12.83;68.29;101351.28;5056031;28;67670;-61
2021/10/16 00:32:42;;;;;;;;;14.00;13.75;;;;;12.81;68.08;101357.66;5056212;28;58594;-61
2021/10/16 00:35:08;;;;;;;;;16.50;14.75;;;;;12.80;67.84;101361.28;5038412;28;58231;-61
2021/10/16 00:37:33;;;;;;;;;14.25;12.50;;;;;12.75;68.25;101353.72;5056817;28;45291;-60
2021/10/16 00:39:59;;;;;;;;;15.00;12.50;;;;;12.72;68.11;101351.34;5056661;28;45350;-61
2021/10/16 00:42:24;;;;;;;;;12.25;11.25;;;;;12.71;67.93;101344.44;5056064;28;56818;-60
2021/10/16 00:44:49;;;;;;;;;12.25;9.50;;;;;12.70;67.80;101348.03;5056779;28;45433;-60
2021/10/16 00:47:15;;;;;;;;;11.00;9.25;;;;;12.70;67.89;101355.94;5056661;28;45606;-61
2021/10/16 00:49:41;;;;;;;;;11.75;9.50;;;;;12.69;67.93;101351.66;5038702;28;45444;-61
2021/10/16 00:52:06;;;;;;;;;12.25;10.00;;;;;12.68;67.56;101353.44;5056529;28;45285;-60
2021/10/16 00:54:31;;;;;;;;;8.50;8.00;;;;;12.65;67.46;101347.59;5038887;28;45636;-60
2021/10/16 00:56:58;;;;;;;;;9.75;8.75;;;;;12.64;67.62;101345.91;5038721;28;45573;-60
2021/10/16 00:59:24;;;;;;;;;10.75;10.00;;;;;12.63;67.93;101350.34;5056255;28;45528;-60
2021/10/16 01:01:49;;;;;;;;;9.50;9.50;;;;;12.63;67.44;101349.53;5020728;28;69996;-61
2021/10/16 01:04:15;;;;;;;;;9.50;8.00;;;;;12.60;67.79;101350.59;5056676;28;45392;-61
2021/10/16 01:06:40;;;;;;;;;7.50;7.50;;;;;12.56;67.93;101343.91;5056524;28;46008;-60
2021/10/16 01:09:09;;;;;;;;;8.75;7.00;;;;;12.50;67.57;101355.81;5038418;28;46065;-60
2021/10/16 01:11:39;;;;;;;;;8.00;7.25;;;;;12.43;68.03;101344.97;5056375;28;45916;-60
2021/10/16 01:14:06;;;;;;;;;9.25;7.00;;;;;12.41;68.10;101336.34;5038641;28;45290;-61
2021/10/16 01:16:32;;;;;;;;;8.75;6.75;;;;;12.39;68.07;101337.41;5056193;28;45304;-60
2021/10/16 01:18:57;;;;;;;;;9.25;7.00;;;;;12.37;67.49;101339.34;5037926;28;46523;-60
2021/10/16 01:21:23;;;;;;;;;8.75;7.50;;;;;12.31;67.97;101338.91;5055269;28;69386;-61
2021/10/16 01:23:48;;;;;;;;;6.50;6.50;;;;;12.24;67.98;101344.81;5037104;28;66099;-60
2021/10/16 01:26:13;;;;;;;;;9.25;8.50;;;;;12.20;68.32;101341.56;5037455;28;61840;-60
2021/10/16 01:28:39;;;;;;;;;9.00;8.00;;;;;12.19;68.18;101337.28;5037363;28;66469;-61
2021/10/16 01:31:04;;;;;;;;;9.75;7.00;;;;;12.18;67.96;101335.63;5055879;28;47248;-60
2021/10/16 01:33:30;;;;;;;;;10.25;8.75;;;;;12.18;68.10;101340.91;5038232;28;45367;-60
2021/10/16 01:36:02;;;;;;;;;13.50;9.00;;;;;12.19;67.59;101336.44;5037303;28;65074;-60
2021/10/16 01:38:28;;;;;;;;;7.00;6.25;;;;;12.16;67.67;101340.19;5038408;28;45980;-60
2021/10/16 01:40:53;;;;;;;;;8.00;6.25;;;;;12.14;68.02;101332.38;5038209;28;45338;-61
2021/10/16 01:43:19;;;;;;;;;7.00;7.00;;;;;12.10;68.03;101338.88;5056165;28;45305;-61
2021/10/16 01:45:44;;;;;;;;;9.75;8.25;;;;;12.05;67.99;101334.97;5037140;28;66387;-61
2021/10/16 01:48:09;;;;;;;;;8.75;7.25;;;;;12.00;68.16;101338.81;5036877;28;65599;-61
2021/10/16 01:50:41;;;;;;;;;10.75;8.50;;;;;11.96;68.15;101337.34;5055666;28;45186;-60
2021/10/16 01:53:10;;;;;;;;;12.00;9.00;;;;;11.92;68.18;101337.75;5055831;28;45354;-60
2021/10/16 01:55:36;;;;;;;;;10.25;8.00;;;;;11.86;67.98;101324.09;5037698;28;47644;-60
2021/10/16 01:58:08;;;;;;;;;13.00;10.25;;;;;11.82;68.00;101330.59;5021016;28;46371;-60
2021/10/16 02:00:33;;;;;;;;;9.00;9.00;;;;;11.78;68.29;101328.31;5037889;28;45328;-60
2021/10/16 02:02:59;;;;;;;;;14.25;11.00;;;;;11.74;67.85;101325.09;5055693;28;45584;-60
2021/10/16 02:05:24;;;;;;;;;11.75;9.00;;;;;11.72;68.01;101327.00;5055680;28;45582;-60
2021/10/16 02:07:50;;;;;;;;;9.75;9.25;;;;;11.71;67.88;101322.72;5055680;28;45369;-60
2021/10/16 02:10:15;;;;;;;;;11.75;9.00;;;;;11.68;68.01;101321.16;5055479;28;45212;-60
2021/10/16 02:12:40;;;;;;;;;13.50;9.00;;;;;11.66;67.91;101320.44;5055174;28;55943;-60
2021/10/16 02:15:06;;;;;;;;;8.00;7.50;;;;;11.64;67.86;101316.25;5055608;28;45242;-60
2021/10/16 02:17:31;;;;;;;;;7.00;7.00;;;;;11.62;67.98;101321.66;5055393;28;45591;-60
2021/10/16 02:19:57;;;;;;;;;12.00;7.50;;;;;11.57;67.99;101321.19;5055427;28;45345;-60
2021/10/16 02:22:22;;;;;;;;;8.00;7.00;;;;;11.52;68.71;101313.66;5054966;28;54973;-60
2021/10/16 02:24:48;;;;;;;;;7.75;7.00;;;;;11.48;68.55;101312.22;5055547;28;45552;-60
2021/10/16 02:27:13;;;;;;;;;12.25;9.75;;;;;11.47;68.33;101310.56;5037499;28;47553;-60
2021/10/16 02:29:38;;;;;;;;;7.25;6.75;;;;;11.44;68.71;101316.06;5054661;28;64149;-61
2021/10/16 02:32:04;;;;;;;;;8.50;7.75;;;;;11.40;68.47;101312.84;5058132;28;60883;-60
2021/10/16 02:34:29;;;;;;;;;10.00;7.00;;;;;11.37;68.78;101313.09;5058808;28;45367;-60
2021/10/16 02:36:55;;;;;;;;;11.25;10.00;;;;;11.35;68.31;101316.81;5058072;28;66348;-60
2021/10/16 02:39:20;;;;;;;;;10.25;8.00;;;;;11.32;67.88;101328.41;5039658;28;73416;-60
2021/10/16 02:41:46;;;;;;;;;7.50;7.50;;;;;11.30;67.67;101316.34;5040820;28;45718;-60
2021/10/16 02:44:11;;;;;;;;;7.25;7.25;;;;;11.28;67.24;101319.94;5040908;28;45273;-60
2021/10/16 02:46:36;;;;;;;;;8.50;7.00;;;;;11.28;67.45;101314.66;5057843;28;66072;-60
2021/10/16 02:49:02;;;;;;;;;7.75;7.25;;;;;11.26;67.50;101318.34;5057963;28;59607;-60
2021/10/16 02:51:27;;;;;;;;;9.00;8.75;;;;;11.24;67.88;101307.13;5057853;28;60853;-61
2021/10/16 02:53:52;;;;;;;;;10.00;8.25;;;;;11.21;68.12;101315.25;5057875;28;62636;-60
2021/10/16 02:56:18;;;;;;;;;11.50;9.00;;;;;11.19;67.44;101317.16;5039827;28;67357;-60
2021/10/16 02:58:43;;;;;;;;;9.00;9.00;;;;;11.17;67.00;101312.03;5057877;28;59738;-60
2021/10/16 03:01:08;;;;;;;;;7.00;6.00;;;;;11.14;67.58;101305.22;5039610;28;63307;-60
2021/10/16 03:03:34;;;;;;;;;7.50;7.50;;;;;11.12;67.67;101312.41;5058389;28;45535;-60
2021/10/16 03:05:59;;;;;;;;;9.00;8.75;;;;;11.11;67.49;101307.25;5058249;28;45480;-60
2021/10/16 03:08:25;;;;;;;;;8.50;7.50;;;;;11.09;67.61;101312.66;5057460;28;68900;-61
2021/10/16 03:10:50;;;;;;;;;7.50;7.50;;;;;11.09;67.45;101309.16;5057683;28;61011;-60
2021/10/16 03:13:16;;;;;;;;;7.50;6.25;;;;;11.08;67.59;101304.88;5057509;28;64865;-60
2021/10/16 03:15:41;;;;;;;;;9.00;9.00;;;;;11.05;67.69;101305.09;5057852;28;52334;-60
2021/10/16 03:18:06;;;;;;;;;6.75;6.75;;;;;11.05;67.47;101305.97;5057439;28;62894;-60
2021/10/16 03:20:32;;;;;;;;;14.50;7.75;;;;;11.05;67.71;101300.69;5040027;28;45667;-60
2021/10/16 03:22:57;;;;;;;;;8.25;8.00;;;;;11.03;67.00;101305.25;5039540;28;51364;-60
2021/10/16 03:25:23;;;;;;;;;10.00;8.75;;;;;11.00;66.80;101302.84;5039901;28;45285;-60
2021/10/16 03:27:48;;;;;;;;;13.50;9.00;;;;;10.99;66.54;101295.91;5057821;28;46339;-60
2021/10/16 03:30:13;;;;;;;;;8.75;8.75;;;;;10.99;66.76;101296.75;5039024;28;67732;-60
2021/10/16 03:32:39;;;;;;;;;10.25;9.00;;;;;10.97;67.00;101300.47;5057976;28;45582;-60
2021/10/16 03:35:04;;;;;;;;;10.75;10.25;;;;;10.96;66.63;101293.53;5056825;28;72519;-60
2021/10/16 03:37:30;;;;;;;;;11.50;9.25;;;;;10.93;66.41;101296.41;5039535;28;51663;-60
2021/10/16 03:39:55;;;;;;;;;13.00;9.75;;;;;10.89;66.21;101294.97;5057774;28;49598;-60
2021/10/16 03:42:20;;;;;;;;;9.50;7.75;;;;;10.86;66.26;101290.78;5037761;28;57755;-60
2021/10/16 03:44:46;;;;;;;;;8.50;7.25;;;;;10.82;66.35;101284.91;5056806;28;71386;-60
2021/10/16 03:47:11;;;;;;;;;6.00;6.00;;;;;10.81;65.59;101288.50;5057037;28;63682;-60
2021/10/16 03:49:36;;;;;;;;;6.50;6.25;;;;;10.79;65.87;101289.59;5057683;28;45313;-60
2021/10/16 03:52:02;;;;;;;;;10.50;8.00;;;;;10.75;65.38;101294.22;5057169;28;55479;-60
2021/10/16 03:54:27;;;;;;;;;8.50;7.25;;;;;10.73;65.77;101305.81;5039442;28;45891;-60
2021/10/16 03:56:53;;;;;;;;;9.50;7.00;;;;;10.71;65.88;101310.38;5056513;28;68257;-60
2021/10/16 03:59:21;;;;;;;;;10.00;10.00;;;;;10.68;66.41;101308.78;5056572;28;67041;-60
2021/10/16 04:01:47;;;;;;;;;13.75;12.75;;;;;10.68;66.69;101316.69;5057471;28;45550;-60
2021/10/16 04:04:13;;;;;;;;;13.75;11.00;;;;;10.65;66.81;101314.28;5057229;28;45280;-60
2021/10/16 04:06:38;;;;;;;;;8.50;8.00;;;;;10.62;66.68;101320.63;5056616;28;62921;-60
2021/10/16 04:09:03;;;;;;;;;9.25;8.25;;;;;10.59;67.40;101315.59;5056978;28;55085;-60
2021/10/16 04:11:29;;;;;;;;;9.00;8.00;;;;;10.56;67.20;101309.75;5056519;28;65721;-60
2021/10/16 04:13:54;;;;;;;;;8.75;7.75;;;;;10.54;67.33;101312.47;5056598;28;62291;-60
2021/10/16 04:16:20;;;;;;;;;9.00;8.00;;;;;10.48;67.89;101313.78;5057312;28;45231;-60
2021/10/16 04:18:45;;;;;;;;;10.00;8.75;;;;;10.45;68.32;101314.03;5038756;28;60024;-60
2021/10/16 04:21:10;;;;;;;;;14.25;10.75;;;;;10.44;68.03;101312.34;5056455;28;59599;-60
2021/10/16 04:23:36;;;;;;;;;11.25;10.00;;;;;10.44;68.47;101311.50;5055997;28;63889;-60
2021/10/16 04:26:01;;;;;;;;;12.50;10.25;;;;;10.42;68.80;101305.53;5056865;28;45346;-60
2021/10/16 04:28:26;;;;;;;;;9.00;9.00;;;;;10.40;68.93;101297.78;5056430;28;62385;-60
2021/10/16 04:30:52;;;;;;;;;14.25;11.00;;;;;10.38;69.11;101304.91;5056199;28;64229;-60
2021/10/16 04:33:17;;;;;;;;;11.00;10.00;;;;;10.36;68.84;101302.38;5038963;28;46571;-60
2021/10/16 04:35:43;;;;;;;;;14.50;10.00;;;;;10.35;69.21;101298.06;5037886;28;72431;-60
2021/10/16 04:38:08;;;;;;;;;11.50;9.00;;;;;10.33;69.49;101297.34;5056960;28;45860;-60
2021/10/16 04:40:34;;;;;;;;;10.75;8.00;;;;;10.31;69.28;101307.16;5038813;28;45512;-60
2021/10/16 04:43:01;;;;;;;;;13.00;9.00;;;;;10.31;69.65;101308.94;5038615;28;45923;-61
2021/10/16 04:45:27;;;;;;;;;12.00;12.00;;;;;10.29;69.39;101302.97;5039056;28;45964;-60
2021/10/16 04:47:52;;;;;;;;;9.50;9.00;;;;;10.30;68.97;101308.13;5055946;28;68258;-60
2021/10/16 04:50:17;;;;;;;;;12.00;9.25;;;;;10.30;69.43;101313.38;5038668;28;45288;-60
2021/10/16 04:52:43;;;;;;;;;16.25;11.50;;;;;10.30;69.25;101310.75;5056070;28;45337;-61
2021/10/16 04:55:08;;;;;;;;;9.75;9.00;;;;;10.32;69.39;101319.34;5037089;28;64553;-60
2021/10/16 04:57:34;;;;;;;;;11.75;9.00;;;;;10.34;69.24;101317.41;5056561;28;45304;-60
2021/10/16 04:59:59;;;;;;;;;32.50;30.00;;;;;10.33;69.36;101323.63;5056510;28;45297;-60
2021/10/16 05:02:25;;;;;;;;;14.00;13.75;;;;;10.34;69.71;101324.47;5038320;28;45454;-60
2021/10/16 05:04:52;;;;;;;;;14.00;10.25;;;;;10.36;69.73;101325.19;5038480;28;45423;-60
2021/10/16 05:07:17;;;;;;;;;9.25;9.25;;;;;10.36;69.82;101320.75;5056513;28;45296;-60
2021/10/16 05:09:42;;;;;;;;;10.00;9.00;;;;;10.38;69.77;101326.72;5055625;28;64126;-60
2021/10/16 05:12:08;;;;;;;;;13.00;10.00;;;;;10.41;69.92;101338.84;5055810;28;45341;-60
2021/10/16 05:14:33;;;;;;;;;9.00;8.00;;;;;10.41;69.83;101333.59;5056235;28;45346;-60
2021/10/16 05:16:58;;;;;;;;;9.25;8.50;;;;;10.43;69.76;101342.22;5055621;28;65615;-60
2021/10/16 05:19:24;;;;;;;;;11.75;9.25;;;;;10.45;69.76;101335.03;5055499;28;65316;-60
2021/10/16 05:21:49;;;;;;;;;10.25;8.25;;;;;10.47;69.63;101335.75;5055358;28;65317;-60
2021/10/16 05:24:14;;;;;;;;;10.75;8.75;;;;;10.48;69.46;101340.06;5055110;28;67303;-60
2021/10/16 05:26:40;;;;;;;;;13.50;9.00;;;;;10.49;69.73;101336.50;5055498;28;64744;-60
2021/10/16 05:29:06;;;;;;;;;9.00;7.50;;;;;10.49;69.53;101330.38;5054094;28;45546;-61
2021/10/16 05:31:31;;;;;;;;;14.00;9.00;;;;;10.49;69.81;101331.22;5055159;28;68018;-60
2021/10/16 05:33:56;;;;;;;;;8.25;8.00;;;;;10.52;69.41;101338.03;5055088;28;66367;-60
2021/10/16 05:36:22;;;;;;;;;10.00;8.00;;;;;10.50;69.68;101330.28;5055489;28;59547;-60
2021/10/16 05:38:47;;;;;;;;;9.50;7.50;;;;;10.49;69.82;101331.22;5037988;28;45421;-60
2021/10/16 05:41:12;;;;;;;;;11.50;9.50;;;;;10.45;70.00;101323.69;5054549;28;47679;-60
2021/10/16 05:43:38;;;;;;;;;14.25;10.25;;;;;10.47;69.94;101327.03;5055513;28;54258;-60
2021/10/16 05:46:03;;;;;;;;;11.75;9.00;;;;;10.47;69.84;101327.03;5036882;28;66587;-60
2021/10/16 05:48:30;;;;;;;;;10.50;9.00;;;;;10.45;70.10;101318.44;5055412;28;56354;-60
2021/10/16 05:50:56;;;;;;;;;6.00;6.00;;;;;10.46;70.06;101323.59;5037420;28;46204;-60
2021/10/16 05:53:21;;;;;;;;;11.75;7.75;;;;;10.47;70.36;101327.03;5055570;28;45927;-60
2021/10/16 05:55:47;;;;;;;;;8.25;7.75;;;;;10.48;70.54;101324.31;5037772;28;45313;-60
2021/10/16 05:58:12;;;;;;;;;9.25;7.50;;;;;10.50;70.54;101317.16;5054442;28;68944;-60
2021/10/16 06:00:37;;;;;;;;;10.00;9.00;;;;;10.52;70.80;101320.50;5055173;28;45373;-60
2021/10/16 06:03:03;;;;;;;;;8.50;8.00;;;;;10.55;70.57;101324.66;5054315;28;66877;-60
2021/10/16 06:05:28;;;;;;;;;9.00;7.25;;;;;10.59;70.60;101327.91;5056114;28;61755;-60
2021/10/16 06:07:54;;;;;;;;;10.00;7.75;;;;;10.60;70.41;101332.22;5058432;28;62830;-60
2021/10/16 06:10:19;;;;;;;;;12.00;10.00;;;;;10.62;70.26;101331.13;5058281;28;69923;-60
2021/10/16 06:12:44;;;;;;;;;13.25;10.00;;;;;10.62;69.65;101330.28;5058851;28;45364;-60
2021/10/16 06:15:10;;;;;;;;;15.00;11.50;;;;;10.63;69.78;101334.59;5058236;28;65447;-60
2021/10/16 06:17:35;;;;;;;;;13.50;10.50;;;;;10.64;69.78;101334.47;5058420;28;61371;-60
2021/10/16 06:20:00;;;;;;;;;12.75;10.75;;;;;10.64;69.88;101333.63;5058026;28;66408;-60
2021/10/16 06:22:26;;;;;;;;;11.50;11.00;;;;;10.66;69.67;101342.25;5058067;28;64538;-60
2021/10/16 06:24:51;;;;;;;;;13.75;11.00;;;;;10.66;69.43;101344.88;5058817;28;45447;-60
2021/10/16 06:27:17;;;;;;;;;23.00;17.00;;;;;10.66;69.79;101337.84;5058073;28;65095;-60
2021/10/16 06:29:42;;;;;;;;;15.75;13.25;;;;;10.68;69.84;101335.94;5058597;28;46175;-60
2021/10/16 06:32:08;;;;;;;;;20.25;19.00;;;;;10.70;69.39;101351.56;5057758;28;64738;-60
2021/10/16 06:34:33;;;;;;;;;14.00;13.00;;;;;10.71;69.56;101347.16;5058747;28;45403;-61
2021/10/16 06:36:59;;;;;;;;;23.25;19.00;;;;;10.74;69.88;101349.56;5058107;28;54538;-60
2021/10/16 06:39:24;;;;;;;;;17.00;13.50;;;;;10.76;69.59;101348.47;5057795;28;70869;-60
2021/10/16 06:41:50;;;;;;;;;22.75;18.75;;;;;10.77;69.50;101344.88;5057629;28;69124;-60
2021/10/16 06:44:15;;;;;;;;;24.00;22.00;;;;;10.77;69.82;101349.31;5058131;28;45420;-60
2021/10/16 06:46:41;;;;;;;;;20.50;16.25;;;;;10.79;70.08;101347.41;5058063;28;45423;-60
2021/10/16 06:49:06;;;;;;;;;15.00;12.75;;;;;10.81;69.79;101346.34;5057644;28;70836;-60
2021/10/16 06:51:32;;;;;;;;;10.50;9.50;;;;;10.83;69.71;101352.31;5058516;28;45364;-61
2021/10/16 06:53:57;;;;;;;;;11.50;8.75;;;;;10.85;69.92;101352.22;5058153;28;53833;-60
2021/10/16 06:56:22;;;;;;;;;11.75;10.50;;;;;10.87;69.97;101357.34;5057730;28;60703;-60
2021/10/16 06:58:48;;;;;;;;;10.75;8.50;;;;;10.87;70.40;101354.72;5057547;28;67741;-60
2021/10/16 07:01:14;;;;;;;;;7.50;7.50;;;;;10.87;70.63;101354.72;5058304;28;45326;-60
2021/10/16 07:03:39;;;;;;;;;13.25;12.25;;;;;10.87;70.71;101359.97;5058126;28;45284;-60
2021/10/16 07:06:05;;;;;;;;;11.75;9.75;;;;;10.90;70.59;101357.09;5039359;28;65128;-60
2021/10/16 07:08:30;;;;;;;;;11.75;9.00;;;;;10.92;70.70;101363.91;5057370;28;65317;-60
2021/10/16 07:10:56;;;;;;;;;9.50;8.00;;;;;10.95;70.54;101363.66;5057845;28;49964;-60
2021/10/16 07:13:22;;;;;;;;;10.50;10.25;;;;;10.98;70.62;101371.31;5058136;28;45233;-60
2021/10/16 07:15:47;;;;;;;;;9.25;9.25;;;;;11.03;70.26;101381.50;5057889;28;45254;-60
2021/10/16 07:18:12;;;;;;;;;13.25;11.00;;;;;11.07;70.05;101377.69;5039203;28;66964;-60
2021/10/16 07:20:38;;;;;;;;;9.00;8.00;;;;;11.10;70.12;101377.44;5056944;28;70660;-60
2021/10/16 07:23:05;;;;;;;;;10.25;9.50;;;;;11.13;69.74;101366.66;5056709;28;62344;-60
2021/10/16 07:25:31;;;;;;;;;10.25;8.00;;;;;11.18;69.78;101376.84;5040074;28;45442;-60
2021/10/16 07:27:56;;;;;;;;;10.75;9.00;;;;;11.23;69.15;101372.06;5056784;28;70525;-60
2021/10/16 07:30:22;;;;;;;;;11.50;8.50;;;;;11.25;69.13;101370.16;5057674;28;45340;-60
2021/10/16 07:32:47;;;;;;;;;12.75;8.25;;;;;11.30;69.44;101382.13;5057870;28;45453;-60
2021/10/16 07:35:13;;;;;;;;;11.00;8.75;;;;;11.34;69.03;101375.66;5057303;28;45692;-61
2021/10/16 07:37:39;;;;;;;;;10.00;10.00;;;;;11.38;69.13;101380.53;5039622;28;46552;-60
2021/10/16 07:40:05;;;;;;;;;15.25;12.00;;;;;11.39;69.07;101382.22;5057105;28;45505;-60
2021/10/16 07:42:30;;;;;;;;;12.00;9.50;;;;;11.42;69.05;101379.34;5057195;28;45407;-61
2021/10/16 07:44:55;;;;;;;;;11.00;9.25;;;;;11.46;68.80;101381.75;5056971;28;61547;-60
2021/10/16 07:47:21;;;;;;;;;9.75;9.00;;;;;11.49;68.45;101386.75;5056491;28;71403;-60
2021/10/16 07:49:46;;;;;;;;;10.25;10.00;;;;;11.51;68.68;101379.59;5057587;28;45365;-60
2021/10/16 07:52:11;;;;;;;;;9.75;8.75;;;;;11.53;68.71;101386.38;5057088;28;55418;-60
2021/10/16 07:54:37;;;;;;;;;11.50;8.00;;;;;11.56;68.21;101387.94;5038617;28;66740;-60
2021/10/16 07:57:02;;;;;;;;;12.75;9.25;;;;;11.60;68.06;101399.91;5057043;28;46138;-61
2021/10/16 07:59:28;;;;;;;;;11.25;10.00;;;;;11.66;67.78;101382.78;5057457;28;45264;-60
2021/10/16 08:01:54;;;;;;;;;14.50;13.00;;;;;11.75;68.26;101389.97;5057089;28;45221;-60
2021/10/16 08:04:19;;;;;;;;;17.00;14.50;;;;;11.90;67.83;101392.31;5057214;28;45575;-60
2021/10/16 08:06:44;;;;;;;;;13.75;12.50;;;;;12.09;67.56;101389.06;5057357;28;45301;-60
2021/10/16 08:09:10;;;;;;;;;17.50;14.25;;;;;12.33;66.54;101388.84;5056355;28;62136;-60
2021/10/16 08:11:36;;;;;;;;;16.00;15.00;;;;;12.55;65.98;101384.41;5056500;28;64088;-60
2021/10/16 08:14:02;;;;;;;;;14.50;12.50;;;;;12.77;65.46;101383.44;5039511;28;45368;-60
2021/10/16 08:16:27;;;;;;;;;11.75;11.50;;;;;13.03;64.57;101383.88;5038636;28;45323;-60
2021/10/16 08:18:53;;;;;;;;;12.75;12.00;;;;;13.29;64.40;101390.50;5056179;28;63641;-60
2021/10/16 08:21:18;;;;;;;;;13.50;13.50;;;;;13.53;63.36;101384.09;5039106;28;45301;-61
2021/10/16 08:23:44;;;;;;;;;13.75;13.50;;;;;13.75;63.25;101386.53;5056554;28;45435;-61
2021/10/16 08:26:09;;;;;;;;;17.25;15.25;;;;;14.01;62.31;101380.72;5055913;28;63976;-61
2021/10/16 08:28:34;;;;;;;;;20.00;17.00;;;;;14.23;61.66;101392.81;5055100;28;66856;-61
2021/10/16 08:31:01;;;;;;;;;14.50;13.00;;;;;14.42;61.10;101387.66;5055838;28;64333;-61
2021/10/16 08:33:26;;;;;;;;;11.75;9.75;;;;;14.60;61.00;101388.63;5056929;28;45451;-61
2021/10/16 08:35:51;;;;;;;;;11.50;9.00;;;;;14.76;59.92;101388.06;5037781;28;73448;-61
2021/10/16 08:38:17;;;;;;;;;22.25;20.25;;;;;14.98;59.56;101381.59;5056024;28;45377;-61
2021/10/16 08:40:42;;;;;;;;;13.75;11.50;;;;;15.19;59.38;101387.66;5056656;28;45357;-61
2021/10/16 08:43:08;;;;;;;;;13.00;11.00;;;;;15.40;58.83;101395.34;5038786;28;45433;-61
2021/10/16 08:45:34;;;;;;;;;10.25;10.00;;;;;15.63;57.87;101393.16;5055612;28;73912;-61
2021/10/16 08:48:00;;;;;;;;;13.50;10.50;;;;;15.88;57.49;101396.09;5038397;28;48511;-61
2021/10/16 08:50:26;;;;;;;;;12.00;8.75;;;;;16.11;56.64;101404.44;5038527;28;45332;-60
2021/10/16 08:52:51;;;;;;;;;11.75;10.50;;;;;16.31;56.46;101410.41;5056450;28;45497;-61
2021/10/16 08:55:17;;;;;;;;;10.50;10.00;;;;;16.54;55.97;101404.66;5055286;28;69840;-61
2021/10/16 08:57:42;;;;;;;;;7.50;7.50;;;;;16.74;55.42;101405.28;5056091;28;45436;-61
2021/10/16 09:00:35;;;;;;;;;8.75;5.75;;;;;16.99;54.96;101415.25;5056447;28;45289;-61
2021/10/16 09:03:13;;;;;;;;;5.00;5.00;;;;;17.24;54.07;101418.88;5056342;28;45412;-61
2021/10/16 09:05:39;;;;;;;;;5.75;4.00;;;;;17.41;53.29;101414.47;5056366;28;45654;-61
2021/10/16 09:08:04;;;;;;;;;6.00;5.00;;;;;17.59;52.53;101411.72;5055139;28;72275;-61
2021/10/16 09:10:30;;;;;;;;;5.00;5.00;;;;;17.79;52.26;101411.44;5056092;28;49563;-61
2021/10/16 09:12:57;;;;;;;;;6.50;5.00;;;;;17.98;51.42;101412.97;5055288;28;66348;-62
2021/10/16 09:15:22;;;;;;;;;5.50;4.00;;;;;18.12;51.15;101411.53;5056099;28;46578;-61
2021/10/16 09:18:04;;;;;;;;;8.50;6.00;;;;;18.28;50.22;101417.88;5037934;28;45363;-61
2021/10/16 09:20:37;;;;;;;;;9.25;6.00;;;;;18.46;49.85;101413.22;5037717;28;45289;-61
2021/10/16 09:23:09;;;;;;;;;7.25;5.75;;;;;18.66;49.50;101415.50;5055681;28;45564;-61
2021/10/16 09:25:35;;;;;;;;;6.00;6.00;;;;;18.79;49.00;101409.69;5055979;28;46165;-61
2021/10/16 09:28:14;;;;;;;;;7.00;5.25;;;;;18.89;48.25;101405.00;5038135;28;45375;-61
2021/10/16 09:30:46;;;;;;;;;8.00;5.00;;;;;19.02;48.27;101409.00;5056339;28;45261;-61
2021/10/16 09:33:12;;;;;;;;;9.00;5.25;;;;;19.14;47.72;101407.63;5056046;28;45529;-61
2021/10/16 09:35:37;;;;;;;;;8.00;7.00;;;;;19.26;47.70;101400.94;5037836;28;45624;-61
2021/10/16 09:38:03;;;;;;;;;9.00;7.25;;;;;19.36;47.32;101391.88;5038042;28;45343;-62
2021/10/16 09:40:38;;;;;;;;;6.50;5.75;;;;;19.39;45.94;101389.72;5040004;28;63221;-61
2021/10/16 09:43:19;;;;;;;;;11.50;10.50;;;;;19.49;46.56;101402.00;5059698;28;45508;-60
2021/10/16 09:45:45;;;;;;;;;6.00;5.00;;;;;19.63;45.80;101398.56;5041877;28;46242;-62
2021/10/16 09:48:11;;;;;;;;;8.25;7.00;;;;;19.79;46.03;101395.00;5059418;28;45326;-61
2021/10/16 09:50:36;;;;;;;;;9.00;7.50;;;;;19.98;45.52;101395.56;5059584;28;45379;-62
2021/10/16 09:53:17;;;;;;;;;5.00;4.00;;;;;20.17;44.41;101391.59;5058776;28;61819;-61
2021/10/16 09:55:42;;;;;;;;;4.00;2.50;;;;;20.31;43.37;101398.81;5041396;28;45360;-62
2021/10/16 09:58:08;;;;;;;;;5.00;5.00;;;;;20.41;43.74;101403.91;5040330;28;66025;-62
2021/10/16 10:00:34;;;;;;;;;4.00;4.00;;;;;20.55;43.12;101396.97;5024021;28;60756;-61
2021/10/16 10:03:00;;;;;;;;;5.00;3.00;;;;;20.63;42.48;101404.03;5041234;28;45317;-61
2021/10/16 10:05:25;;;;;;;;;5.00;5.00;;;;;20.74;42.50;101403.63;5023704;28;71062;-62
2021/10/16 10:07:51;;;;;;;;;4.50;4.50;;;;;20.89;42.69;101400.16;5023614;28;69800;-62
2021/10/16 10:10:16;;;;;;;;;4.50;4.00;;;;;21.01;42.30;101400.53;5040823;28;49407;-62
2021/10/16 10:12:41;;;;;;;;;6.00;4.75;;;;;21.14;41.73;101407.88;5058149;28;62641;-62
2021/10/16 10:15:08;;;;;;;;;4.00;4.00;;;;;21.26;41.56;101406.41;5058229;28;65783;-62
2021/10/16 10:17:33;;;;;;;;;5.00;3.50;;;;;21.39;41.13;101400.41;5059011;28;45273;-62
2021/10/16 10:20:06;;;;;;;;;5.00;3.25;;;;;21.55;40.65;101402.00;5058995;28;45311;-61
2021/10/16 10:22:34;;;;;;;;;16.25;12.75;;;;;21.71;40.65;101397.50;5040990;28;45481;-61
2021/10/16 10:25:00;;;;;;;;;6.00;6.00;;;;;21.84;39.86;101396.81;5058561;28;46463;-61
2021/10/16 10:27:25;;;;;;;;;4.25;4.00;;;;;21.91;39.52;101397.69;5040741;28;45443;-62
2021/10/16 10:29:52;;;;;;;;;6.25;5.00;;;;;21.99;39.27;101397.59;5059127;28;45395;-62
2021/10/16 10:32:24;;;;;;;;;3.25;3.25;;;;;22.01;39.48;101387.53;5058934;28;45155;-62
2021/10/16 10:34:53;;;;;;;;;2.75;2.75;;;;;22.02;38.64;101391.84;5041131;28;46117;-62
2021/10/16 10:37:19;;;;;;;;;4.25;4.25;;;;;22.07;38.66;101386.75;5056988;28;45494;-62
2021/10/16 10:39:45;;;;;;;;;4.25;4.25;;;;;22.15;38.67;101398.34;5040011;28;60795;-62
2021/10/16 10:42:13;;;;;;;;;4.00;3.25;;;;;22.26;38.69;101400.50;5058658;28;45502;-61
2021/10/16 10:44:39;;;;;;;;;2.00;2.00;;;;;22.28;36.28;101403.81;5040272;28;46635;-62
2021/10/16 10:47:23;;;;;;;;;2.25;2.00;;;;;22.29;36.23;101396.63;5058354;28;45336;-61
2021/10/16 10:49:49;;;;;;;;;1.75;1.00;;;;;22.27;35.95;101401.34;5058271;28;45372;-62
2021/10/16 10:52:15;;;;;;;;;2.00;1.00;;;;;22.22;36.34;101396.56;5057628;28;45498;-61
2021/10/16 10:54:40;;;;;;;;;2.50;2.00;;;;;22.16;36.30;101400.00;5039824;28;45375;-62
2021/10/16 10:57:05;;;;;;;;;4.00;3.00;;;;;22.11;35.95;101394.41;5058388;28;45322;-62
2021/10/16 10:59:53;;;;;;;;;2.50;1.00;;;;;22.14;36.87;101389.47;5058103;28;45332;-62
2021/10/16 11:02:29;;;;;;;;;1.75;1.75;;;;;22.27;36.65;101390.63;5040580;28;45246;-61
2021/10/16 11:04:55;;;;;;;;;2.00;2.00;;;;;22.38;36.70;101395.47;5058116;28;46594;-62
2021/10/16 11:07:33;;;;;;;;;2.75;2.25;;;;;22.52;35.73;101383.03;5040219;28;45378;-62
2021/10/16 11:09:59;;;;;;;;;1.25;1.00;;;;;22.64;36.08;101384.16;5058244;28;45470;-62
2021/10/16 11:12:29;;;;;;;;;1.00;1.00;;;;;22.67;35.17;101386.44;5040461;28;45525;-62
2021/10/16 11:14:57;;;;;;;;;0.00;0.00;;;;;22.75;35.41;101384.63;5057872;28;46414;-62